Polar Lady — WDC4401 — position and weather

sailwx.info

Track history (hours):
 
Tides and Currents Weather Stations Pressure Air Temp Water Temp Dewpoint Dewpoint Depression Visibility Wind Speed Wind Dir Waves Ship Positions

Polar Lady

Owner: M.G.F Fisheries, Seattle, WA. More information available from US FCC via Universal Licensing System and Coast Guard Vessel Documentation Center.

Last reported at 2016-Jun-17 14:33 UTC. Time now 2016-Jul-31 05:29 UTC.
Position N 51°30' W 127°52'.
Warning: this ship's position is 43 days out of date.

Length 40 m.

Type: Fishing. MMSI: 367024080.

Date/timePositionNaut miles runAvg speedWind from/ knotsBaromVisibWave heightAir tempDewpointWater temp
2016-Jun-17 14:33N 51°30' W 127°52'19 8.9
2016-Jun-17 12:25N 51°11' W 127°50'8 9.1
2016-Jun-17 11:33N 51°05' W 127°42'9 9.4
2016-Jun-17 10:33N 50°58' W 127°31'10 9.8
2016-Jun-17 09:33N 50°52' W 127°19'9 9.0
2016-Jun-17 08:31N 50°47' W 127°06'70 8.8
2016-Jun-17 00:33N 50°19' W 125°25'9 9.4
2016-Jun-16 23:33N 50°09' W 125°22'7 7.3
2016-Jun-16 22:34N 50°04' W 125°15'6 6.3
2016-Jun-16 21:33N 49°58' W 125°09'7 6.6
2016-Jun-16 20:33N 49°54' W 125°02'9 9.1
2016-Jun-16 19:33N 49°47' W 124°52'9 8.7
2016-Jun-16 18:33N 49°41' W 124°43'18 8.5
2016-Jun-16 16:22N 49°28' W 124°23'7 8.3
2016-Jun-16 15:33N 49°24' W 124°14'9 8.7
2016-Jun-16 14:33N 49°22' W 124°01'8 8.4
2016-Jun-16 13:33N 49°18' W 123°49'9 8.8
2016-Jun-16 12:33N 49°13' W 123°39'9 8.7
2016-Jun-16 11:33N 49°08' W 123°28'8 8.5
2016-Jun-16 10:33N 49°02' W 123°18'9 8.7
2016-Jun-16 09:33N 48°57' W 123°08'9 9.0
2016-Jun-16 08:33N 48°51' W 122°57'10 9.6
2016-Jun-16 07:33N 48°45' W 122°46'8 8.3
2016-Jun-16 06:33N 48°37' W 122°45'9 9.0
2016-Jun-16 05:33N 48°28' W 122°44'28 8.4
2016-Jun-16 02:15N 48°01' W 122°36'7 9.7
2016-Jun-16 01:33N 47°56' W 122°29'9 9.2
2016-Jun-16 00:34N 47°47' W 122°26'6 6.4
2016-Jun-15 23:33N 47°41' W 122°25'0 0.0
2016-Jun-15 22:33N 47°41' W 122°25'0 0.0
2016-Jun-15 21:33N 47°41' W 122°25'1 0.9
2016-Jun-15 20:33N 47°40' W 122°24'1 0.5
2016-Jun-15 19:33N 47°40' W 122°23'0 0.0
2016-Jun-15 18:33N 47°40' W 122°23'0 0.4
2016-Jun-15 17:33N 47°39' W 122°23'0 0.0
2016-Jun-15 16:34N 47°39' W 122°23'0 0.1
2016-Jun-15 15:34N 47°39' W 122°23'0 0.0
2016-Jun-15 14:34N 47°39' W 122°23'0 0.0
2016-Jun-15 13:33N 47°39' W 122°23'0 0.0
2016-Jun-15 12:33N 47°39' W 122°23'0 0.0
2016-Jun-15 11:33N 47°39' W 122°23'0 0.0
2016-Jun-15 10:34N 47°39' W 122°23'0 0.0
2016-Jun-15 09:33N 47°39' W 122°23'0 0.0
2016-Jun-15 08:33N 47°39' W 122°23'0 0.0
2016-Jun-15 07:33N 47°39' W 122°23'0 0.0
2016-Jun-15 06:33N 47°39' W 122°23'0 0.0
2016-Jun-15 05:33N 47°39' W 122°23'0 0.0
2016-Jun-15 04:34N 47°39' W 122°23'0 0.0
2016-Jun-15 03:33N 47°39' W 122°23'0 0.0
2016-Jun-15 02:34N 47°39' W 122°23'0 0.0
2016-Jun-15 01:34N 47°39' W 122°23'0 0.0
2016-Jun-15 00:34N 47°39' W 122°23'0 0.0
2016-Jun-14 23:34N 47°39' W 122°23'0 0.0
2016-Jun-14 22:34N 47°39' W 122°23'0 0.0
2016-Jun-14 21:33N 47°39' W 122°23'0 0.0
2016-Jun-14 20:33N 47°39' W 122°23'0 0.0
2016-Jun-14 19:34N 47°39' W 122°23'0 0.0
2016-Jun-14 18:33N 47°39' W 122°23'0 0.0
2016-Jun-14 17:34N 47°39' W 122°23'0 0.0
2016-Jun-14 16:33N 47°39' W 122°23'0 0.0
2016-Jun-14 15:34N 47°39' W 122°23'0 0.0
2016-Jun-14 14:33N 47°39' W 122°23'0 0.0
2016-Jun-14 13:33N 47°39' W 122°23'0 0.0
2016-Jun-14 12:33N 47°39' W 122°23'0 0.0
2016-Jun-14 11:33N 47°39' W 122°23'0 0.0
2016-Jun-14 10:33N 47°39' W 122°23'0 0.0
2016-Jun-14 09:34N 47°39' W 122°23'0 0.0
2016-Jun-14 08:34N 47°39' W 122°23'0 0.0
2016-Jun-14 07:33N 47°39' W 122°23'0 0.0
2016-Jun-14 05:33N 47°39' W 122°23'0 0.0
2016-Jun-14 04:33N 47°39' W 122°23'0 0.0
2016-Jun-14 03:33N 47°39' W 122°23'0 0.0
2016-Jun-14 02:33N 47°39' W 122°23'0 0.0
2016-Jun-14 01:33N 47°39' W 122°23'0 0.0
2016-Jun-14 00:33N 47°39' W 122°23'0 0.0
2016-Jun-13 23:33N 47°39' W 122°23'0 0.0
2016-Jun-13 22:33N 47°39' W 122°23'0 0.0
2016-Jun-13 21:33N 47°39' W 122°23'0 0.0
2016-Jun-13 20:34N 47°39' W 122°23'0 0.0
2016-Jun-13 19:33N 47°39' W 122°23'0 0.0
2016-Jun-13 18:33N 47°39' W 122°23'0 0.0
2016-Jun-13 17:34N 47°39' W 122°23'0 0.0
2016-Jun-13 16:34N 47°39' W 122°23'0 0.0
2016-Jun-13 15:34N 47°39' W 122°23'0 0.0
2016-Jun-13 14:34N 47°39' W 122°23'0 0.0
2016-Jun-13 13:34N 47°39' W 122°23'0 0.0
2016-Jun-13 12:34N 47°39' W 122°23'0 0.0
2016-Jun-13 11:33N 47°39' W 122°23'0 0.0
2016-Jun-13 10:33N 47°39' W 122°23'0 0.1
2016-Jun-13 09:33N 47°39' W 122°23'0 0.1
2016-Jun-13 08:34N 47°39' W 122°23'0 0.1
2016-Jun-13 07:33N 47°39' W 122°23'0 0.0
2016-Jun-13 06:33N 47°39' W 122°23'0 0.0
2016-Jun-13 05:34N 47°39' W 122°23'0 0.0
2016-Jun-13 04:33N 47°39' W 122°23'0 0.0
2016-Jun-13 03:33N 47°39' W 122°23'0 0.0
2016-Jun-13 02:33N 47°39' W 122°23'0 0.0
2016-Jun-13 01:33N 47°39' W 122°23'0 0.0
2016-Jun-13 00:33N 47°39' W 122°23'0 0.0
2016-Jun-12 23:33N 47°39' W 122°23'0 0.0
2016-Jun-12 22:33N 47°39' W 122°23'0 0.0
2016-Jun-12 21:33N 47°39' W 122°23'0 0.0
2016-Jun-12 20:33N 47°39' W 122°23'0 0.0
2016-Jun-12 19:34N 47°39' W 122°23'0 0.0
2016-Jun-12 18:34N 47°39' W 122°23'0 0.0
2016-Jun-12 17:34N 47°39' W 122°23'0 0.0
2016-Jun-12 16:33N 47°39' W 122°23'0 0.0
2016-Jun-12 15:34N 47°39' W 122°23'0 0.0
2016-Jun-12 14:33N 47°39' W 122°23'0 0.0
2016-Jun-12 13:33N 47°39' W 122°23'0 0.0
2016-Jun-12 12:33N 47°39' W 122°23'0 0.0
2016-Jun-12 11:33N 47°39' W 122°23'0 0.0
2016-Jun-12 10:33N 47°39' W 122°23'0 0.0
2016-Jun-12 09:34N 47°39' W 122°23'0 0.0
2016-Jun-12 08:33N 47°39' W 122°23'0 0.0
2016-Jun-12 07:33N 47°39' W 122°23'0 0.0
2016-Jun-12 06:34N 47°39' W 122°23'0 0.0
2016-Jun-12 04:33N 47°39' W 122°23'0 0.0
2016-Jun-12 03:33N 47°39' W 122°23'0 0.0
2016-Jun-12 02:34N 47°39' W 122°23'0 0.0
2016-Jun-12 01:33N 47°39' W 122°23'0 0.0
2016-Jun-12 00:33N 47°39' W 122°23'0 0.0
2016-Jun-11 23:33N 47°39' W 122°23'0 0.0
2016-Jun-11 22:33N 47°39' W 122°23'0 0.0
2016-Jun-11 21:33N 47°39' W 122°23'0 0.0
2016-Jun-11 20:33N 47°39' W 122°23'0 0.0
2016-Jun-11 19:34N 47°39' W 122°23'0 0.0
2016-Jun-11 18:33N 47°39' W 122°23'0 0.0
2016-Jun-11 17:33N 47°39' W 122°23'0 0.0
2016-Jun-11 16:33N 47°39' W 122°23'0 0.0
2016-Jun-11 15:33N 47°39' W 122°23'0 0.0
2016-Jun-11 14:33N 47°39' W 122°23'0 0.0
2016-Jun-11 13:33N 47°39' W 122°23'0 0.0
2016-Jun-11 12:33N 47°39' W 122°23'0 0.0
2016-Jun-11 11:34N 47°39' W 122°23'0 0.0
2016-Jun-11 10:34N 47°39' W 122°23'0 0.0
2016-Jun-11 09:33N 47°39' W 122°23'0 0.0
2016-Jun-11 08:33N 47°39' W 122°23'0 0.0
2016-Jun-11 07:34N 47°39' W 122°23'0 0.0
2016-Jun-11 06:33N 47°39' W 122°23'0 0.0
2016-Jun-11 05:34N 47°39' W 122°23'0 0.0
2016-Jun-11 04:33N 47°39' W 122°23'0 0.0
2016-Jun-11 03:34N 47°39' W 122°23'0 0.0
2016-Jun-11 02:33N 47°39' W 122°23'0 0.0
2016-Jun-11 01:33N 47°39' W 122°23'0 0.0
2016-Jun-11 00:33N 47°39' W 122°23'0 0.0
2016-Jun-10 23:34N 47°39' W 122°23'0 0.0
2016-Jun-10 22:34N 47°39' W 122°23'0 0.0
2016-Jun-10 21:33N 47°39' W 122°23'0 0.0
2016-Jun-10 20:34N 47°39' W 122°23'0 0.0
2016-Jun-10 19:33N 47°39' W 122°23'0 0.0
2016-Jun-10 18:33N 47°39' W 122°23'0 0.0
2016-Jun-10 17:34N 47°39' W 122°23'0 0.0
2016-Jun-10 16:33N 47°39' W 122°23'0 0.0
2016-Jun-10 15:33N 47°39' W 122°23'0 0.0
2016-Jun-10 14:33N 47°39' W 122°23'0 0.0
2016-Jun-10 13:33N 47°39' W 122°23'0 0.0
2016-Jun-10 12:34N 47°39' W 122°23'0 0.0
2016-Jun-10 11:33N 47°39' W 122°23'0 0.0
2016-Jun-10 10:34N 47°39' W 122°23'0 0.0
2016-Jun-10 09:33N 47°39' W 122°23'0 0.0
2016-Jun-10 08:33N 47°39' W 122°23'0 0.0
2016-Jun-10 07:34N 47°39' W 122°23'0 0.0
2016-Jun-10 06:34N 47°39' W 122°23'0 0.0
2016-Jun-10 05:33N 47°39' W 122°23'0 0.0
2016-Jun-10 04:34N 47°39' W 122°23'0 0.0
2016-Jun-10 03:34N 47°39' W 122°23'0 0.0
2016-Jun-10 02:34N 47°39' W 122°23'0 0.0
2016-Jun-10 01:33N 47°39' W 122°23'0 0.0
2016-Jun-10 00:33N 47°39' W 122°23'0 0.0
2016-Jun-09 23:33N 47°39' W 122°23'0 0.0
2016-Jun-09 22:34N 47°39' W 122°23'0 0.0
2016-Jun-09 21:33N 47°39' W 122°23'0 0.0
2016-Jun-09 20:34N 47°39' W 122°23'0 0.0
2016-Jun-09 19:34N 47°39' W 122°23'0 0.0
2016-Jun-09 18:34N 47°39' W 122°23'0 0.0
2016-Jun-09 17:34N 47°39' W 122°23'0 0.0
2016-Jun-09 16:34N 47°39' W 122°23'0 0.0
2016-Jun-09 15:34N 47°39' W 122°23'0 0.0
2016-Jun-09 14:34N 47°39' W 122°23'0 0.0
2016-Jun-09 13:33N 47°39' W 122°23'0 0.0
2016-Jun-09 12:33N 47°39' W 122°23'0 0.0
2016-Jun-09 11:34N 47°39' W 122°23'0 0.0
2016-Jun-09 10:34N 47°39' W 122°23'0 0.0
2016-Jun-09 09:34N 47°39' W 122°23'0 0.0
2016-Jun-09 08:33N 47°39' W 122°23'0 0.0
2016-Jun-09 07:33N 47°39' W 122°23'0 0.0
2016-Jun-09 06:34N 47°39' W 122°23'0 0.0
2016-Jun-09 05:33N 47°39' W 122°23'0 0.0
2016-Jun-09 04:33N 47°39' W 122°23'0 0.0
2016-Jun-09 03:33N 47°39' W 122°23'0 0.0
2016-Jun-09 02:33N 47°39' W 122°23'0 0.0
2016-Jun-09 01:33N 47°39' W 122°23'0 0.0
2016-Jun-09 00:34N 47°39' W 122°23'0 0.0
2016-Jun-08 23:34N 47°39' W 122°23'0 0.0
2016-Jun-08 22:33N 47°39' W 122°23'0 0.0
2016-Jun-08 21:34N 47°39' W 122°23'0 0.0
2016-Jun-08 20:33N 47°39' W 122°23'0 0.0
2016-Jun-08 19:34N 47°39' W 122°23'0 0.0
2016-Jun-08 18:34N 47°39' W 122°23'0 0.0
2016-Jun-08 17:33N 47°39' W 122°23'0 0.0
2016-Jun-08 16:34N 47°39' W 122°23'0 0.0
2016-Jun-08 15:34N 47°39' W 122°23'0 0.0
2016-Jun-08 14:34N 47°39' W 122°23'0 0.0
2016-Jun-08 13:33N 47°39' W 122°23'0 0.0
2016-Jun-08 12:33N 47°39' W 122°23'0 0.0
2016-Jun-08 11:33N 47°39' W 122°23'0 0.0
2016-Jun-08 10:33N 47°39' W 122°23'0 0.0
2016-Jun-08 09:34N 47°39' W 122°23'0 0.0
2016-Jun-08 08:33N 47°39' W 122°23'0 0.0
2016-Jun-08 07:33N 47°39' W 122°23'0 0.0
2016-Jun-08 06:33N 47°39' W 122°23'0 0.0
2016-Jun-08 05:33N 47°39' W 122°23'0 0.0
2016-Jun-08 04:34N 47°39' W 122°23'0 0.0
2016-Jun-08 03:33N 47°39' W 122°23'0 0.0
2016-Jun-08 02:34N 47°39' W 122°23'0 0.0
2016-Jun-08 01:33N 47°39' W 122°23'0 0.0
2016-Jun-08 00:33N 47°39' W 122°23'0 0.0
2016-Jun-07 23:33N 47°39' W 122°23'0 0.0
2016-Jun-07 22:33N 47°39' W 122°23'0 0.0
2016-Jun-07 21:34N 47°39' W 122°23'0 0.0
2016-Jun-07 20:33N 47°39' W 122°23'0 0.0
2016-Jun-07 19:34N 47°39' W 122°23'0 0.0
2016-Jun-07 18:33N 47°39' W 122°23'0 0.0
2016-Jun-07 17:34N 47°39' W 122°23'0 0.0
2016-Jun-07 16:33N 47°39' W 122°23'0 0.0
2016-Jun-07 15:33N 47°39' W 122°23'0 0.0
2016-Jun-07 14:33N 47°39' W 122°23'  
Track history (hours):
 
Tides and Currents Weather Stations Pressure Air Temp Water Temp Dewpoint Dewpoint Depression Visibility Wind Speed Wind Dir Waves Ship Positions

Polar Lady

Owner: M.G.F Fisheries, Seattle, WA. More information available from US FCC via Universal Licensing System and Coast Guard Vessel Documentation Center.

Last reported at 2016-Jun-17 14:33 UTC. Time now 2016-Jul-31 05:29 UTC.
Position N 51°30' W 127°52'.
Warning: this ship's position is 43 days out of date.

Length 40 m.

Type: Fishing. MMSI: 367024080.

Date/timePositionNaut miles runAvg speedWind from/ knotsBaromVisibWave heightAir tempDewpointWater temp
2016-Jun-17 14:33N 51°30' W 127°52'19 8.9
2016-Jun-17 12:25N 51°11' W 127°50'8 9.1
2016-Jun-17 11:33N 51°05' W 127°42'9 9.4
2016-Jun-17 10:33N 50°58' W 127°31'10 9.8
2016-Jun-17 09:33N 50°52' W 127°19'9 9.0
2016-Jun-17 08:31N 50°47' W 127°06'70 8.8
2016-Jun-17 00:33N 50°19' W 125°25'9 9.4
2016-Jun-16 23:33N 50°09' W 125°22'7 7.3
2016-Jun-16 22:34N 50°04' W 125°15'6 6.3
2016-Jun-16 21:33N 49°58' W 125°09'7 6.6
2016-Jun-16 20:33N 49°54' W 125°02'9 9.1
2016-Jun-16 19:33N 49°47' W 124°52'9 8.7
2016-Jun-16 18:33N 49°41' W 124°43'18 8.5
2016-Jun-16 16:22N 49°28' W 124°23'7 8.3
2016-Jun-16 15:33N 49°24' W 124°14'9 8.7
2016-Jun-16 14:33N 49°22' W 124°01'8 8.4
2016-Jun-16 13:33N 49°18' W 123°49'9 8.8
2016-Jun-16 12:33N 49°13' W 123°39'9 8.7
2016-Jun-16 11:33N 49°08' W 123°28'8 8.5
2016-Jun-16 10:33N 49°02' W 123°18'9 8.7
2016-Jun-16 09:33N 48°57' W 123°08'9 9.0
2016-Jun-16 08:33N 48°51' W 122°57'10 9.6
2016-Jun-16 07:33N 48°45' W 122°46'8 8.3
2016-Jun-16 06:33N 48°37' W 122°45'9 9.0
2016-Jun-16 05:33N 48°28' W 122°44'28 8.4
2016-Jun-16 02:15N 48°01' W 122°36'7 9.7
2016-Jun-16 01:33N 47°56' W 122°29'9 9.2
2016-Jun-16 00:34N 47°47' W 122°26'6 6.4
2016-Jun-15 23:33N 47°41' W 122°25'0 0.0
2016-Jun-15 22:33N 47°41' W 122°25'0 0.0
2016-Jun-15 21:33N 47°41' W 122°25'1 0.9
2016-Jun-15 20:33N 47°40' W 122°24'1 0.5
2016-Jun-15 19:33N 47°40' W 122°23'0 0.0
2016-Jun-15 18:33N 47°40' W 122°23'0 0.4
2016-Jun-15 17:33N 47°39' W 122°23'0 0.0
2016-Jun-15 16:34N 47°39' W 122°23'0 0.1
2016-Jun-15 15:34N 47°39' W 122°23'0 0.0
2016-Jun-15 14:34N 47°39' W 122°23'0 0.0
2016-Jun-15 13:33N 47°39' W 122°23'0 0.0
2016-Jun-15 12:33N 47°39' W 122°23'0 0.0
2016-Jun-15 11:33N 47°39' W 122°23'0 0.0
2016-Jun-15 10:34N 47°39' W 122°23'0 0.0
2016-Jun-15 09:33N 47°39' W 122°23'0 0.0
2016-Jun-15 08:33N 47°39' W 122°23'0 0.0
2016-Jun-15 07:33N 47°39' W 122°23'0 0.0
2016-Jun-15 06:33N 47°39' W 122°23'0 0.0
2016-Jun-15 05:33N 47°39' W 122°23'0 0.0
2016-Jun-15 04:34N 47°39' W 122°23'0 0.0
2016-Jun-15 03:33N 47°39' W 122°23'0 0.0
2016-Jun-15 02:34N 47°39' W 122°23'0 0.0
2016-Jun-15 01:34N 47°39' W 122°23'0 0.0
2016-Jun-15 00:34N 47°39' W 122°23'0 0.0
2016-Jun-14 23:34N 47°39' W 122°23'0 0.0
2016-Jun-14 22:34N 47°39' W 122°23'0 0.0
2016-Jun-14 21:33N 47°39' W 122°23'0 0.0
2016-Jun-14 20:33N 47°39' W 122°23'0 0.0
2016-Jun-14 19:34N 47°39' W 122°23'0 0.0
2016-Jun-14 18:33N 47°39' W 122°23'0 0.0
2016-Jun-14 17:34N 47°39' W 122°23'0 0.0
2016-Jun-14 16:33N 47°39' W 122°23'0 0.0
2016-Jun-14 15:34N 47°39' W 122°23'0 0.0
2016-Jun-14 14:33N 47°39' W 122°23'0 0.0
2016-Jun-14 13:33N 47°39' W 122°23'0 0.0
2016-Jun-14 12:33N 47°39' W 122°23'0 0.0
2016-Jun-14 11:33N 47°39' W 122°23'0 0.0
2016-Jun-14 10:33N 47°39' W 122°23'0 0.0
2016-Jun-14 09:34N 47°39' W 122°23'0 0.0
2016-Jun-14 08:34N 47°39' W 122°23'0 0.0
2016-Jun-14 07:33N 47°39' W 122°23'0 0.0
2016-Jun-14 05:33N 47°39' W 122°23'0 0.0
2016-Jun-14 04:33N 47°39' W 122°23'0 0.0
2016-Jun-14 03:33N 47°39' W 122°23'0 0.0
2016-Jun-14 02:33N 47°39' W 122°23'0 0.0
2016-Jun-14 01:33N 47°39' W 122°23'0 0.0
2016-Jun-14 00:33N 47°39' W 122°23'0 0.0
2016-Jun-13 23:33N 47°39' W 122°23'0 0.0
2016-Jun-13 22:33N 47°39' W 122°23'0 0.0
2016-Jun-13 21:33N 47°39' W 122°23'0 0.0
2016-Jun-13 20:34N 47°39' W 122°23'0 0.0
2016-Jun-13 19:33N 47°39' W 122°23'0 0.0
2016-Jun-13 18:33N 47°39' W 122°23'0 0.0
2016-Jun-13 17:34N 47°39' W 122°23'0 0.0
2016-Jun-13 16:34N 47°39' W 122°23'0 0.0
2016-Jun-13 15:34N 47°39' W 122°23'0 0.0
2016-Jun-13 14:34N 47°39' W 122°23'0 0.0
2016-Jun-13 13:34N 47°39' W 122°23'0 0.0
2016-Jun-13 12:34N 47°39' W 122°23'0 0.0
2016-Jun-13 11:33N 47°39' W 122°23'0 0.0
2016-Jun-13 10:33N 47°39' W 122°23'0 0.1
2016-Jun-13 09:33N 47°39' W 122°23'0 0.1
2016-Jun-13 08:34N 47°39' W 122°23'0 0.1
2016-Jun-13 07:33N 47°39' W 122°23'0 0.0
2016-Jun-13 06:33N 47°39' W 122°23'0 0.0
2016-Jun-13 05:34N 47°39' W 122°23'0 0.0
2016-Jun-13 04:33N 47°39' W 122°23'0 0.0
2016-Jun-13 03:33N 47°39' W 122°23'0 0.0
2016-Jun-13 02:33N 47°39' W 122°23'0 0.0
2016-Jun-13 01:33N 47°39' W 122°23'0 0.0
2016-Jun-13 00:33N 47°39' W 122°23'0 0.0
2016-Jun-12 23:33N 47°39' W 122°23'0 0.0
2016-Jun-12 22:33N 47°39' W 122°23'0 0.0
2016-Jun-12 21:33N 47°39' W 122°23'0 0.0
2016-Jun-12 20:33N 47°39' W 122°23'0 0.0
2016-Jun-12 19:34N 47°39' W 122°23'0 0.0
2016-Jun-12 18:34N 47°39' W 122°23'0 0.0
2016-Jun-12 17:34N 47°39' W 122°23'0 0.0
2016-Jun-12 16:33N 47°39' W 122°23'0 0.0
2016-Jun-12 15:34N 47°39' W 122°23'0 0.0
2016-Jun-12 14:33N 47°39' W 122°23'0 0.0
2016-Jun-12 13:33N 47°39' W 122°23'0 0.0
2016-Jun-12 12:33N 47°39' W 122°23'0 0.0
2016-Jun-12 11:33N 47°39' W 122°23'0 0.0
2016-Jun-12 10:33N 47°39' W 122°23'0 0.0
2016-Jun-12 09:34N 47°39' W 122°23'0 0.0
2016-Jun-12 08:33N 47°39' W 122°23'0 0.0
2016-Jun-12 07:33N 47°39' W 122°23'0 0.0
2016-Jun-12 06:34N 47°39' W 122°23'0 0.0
2016-Jun-12 04:33N 47°39' W 122°23'0 0.0
2016-Jun-12 03:33N 47°39' W 122°23'0 0.0
2016-Jun-12 02:34N 47°39' W 122°23'0 0.0
2016-Jun-12 01:33N 47°39' W 122°23'0 0.0
2016-Jun-12 00:33N 47°39' W 122°23'0 0.0
2016-Jun-11 23:33N 47°39' W 122°23'0 0.0
2016-Jun-11 22:33N 47°39' W 122°23'0 0.0
2016-Jun-11 21:33N 47°39' W 122°23'0 0.0
2016-Jun-11 20:33N 47°39' W 122°23'0 0.0
2016-Jun-11 19:34N 47°39' W 122°23'0 0.0
2016-Jun-11 18:33N 47°39' W 122°23'0 0.0
2016-Jun-11 17:33N 47°39' W 122°23'0 0.0
2016-Jun-11 16:33N 47°39' W 122°23'0 0.0
2016-Jun-11 15:33N 47°39' W 122°23'0 0.0
2016-Jun-11 14:33N 47°39' W 122°23'0 0.0
2016-Jun-11 13:33N 47°39' W 122°23'0 0.0
2016-Jun-11 12:33N 47°39' W 122°23'0 0.0
2016-Jun-11 11:34N 47°39' W 122°23'0 0.0
2016-Jun-11 10:34N 47°39' W 122°23'0 0.0
2016-Jun-11 09:33N 47°39' W 122°23'0 0.0
2016-Jun-11 08:33N 47°39' W 122°23'0 0.0
2016-Jun-11 07:34N 47°39' W 122°23'0 0.0
2016-Jun-11 06:33N 47°39' W 122°23'0 0.0
2016-Jun-11 05:34N 47°39' W 122°23'0 0.0
2016-Jun-11 04:33N 47°39' W 122°23'0 0.0
2016-Jun-11 03:34N 47°39' W 122°23'0 0.0
2016-Jun-11 02:33N 47°39' W 122°23'0 0.0
2016-Jun-11 01:33N 47°39' W 122°23'0 0.0
2016-Jun-11 00:33N 47°39' W 122°23'0 0.0
2016-Jun-10 23:34N 47°39' W 122°23'0 0.0
2016-Jun-10 22:34N 47°39' W 122°23'0 0.0
2016-Jun-10 21:33N 47°39' W 122°23'0 0.0
2016-Jun-10 20:34N 47°39' W 122°23'0 0.0
2016-Jun-10 19:33N 47°39' W 122°23'0 0.0
2016-Jun-10 18:33N 47°39' W 122°23'0 0.0
2016-Jun-10 17:34N 47°39' W 122°23'0 0.0
2016-Jun-10 16:33N 47°39' W 122°23'0 0.0
2016-Jun-10 15:33N 47°39' W 122°23'0 0.0
2016-Jun-10 14:33N 47°39' W 122°23'0 0.0
2016-Jun-10 13:33N 47°39' W 122°23'0 0.0
2016-Jun-10 12:34N 47°39' W 122°23'0 0.0
2016-Jun-10 11:33N 47°39' W 122°23'0 0.0
2016-Jun-10 10:34N 47°39' W 122°23'0 0.0
2016-Jun-10 09:33N 47°39' W 122°23'0 0.0
2016-Jun-10 08:33N 47°39' W 122°23'0 0.0
2016-Jun-10 07:34N 47°39' W 122°23'0 0.0
2016-Jun-10 06:34N 47°39' W 122°23'0 0.0
2016-Jun-10 05:33N 47°39' W 122°23'0 0.0
2016-Jun-10 04:34N 47°39' W 122°23'0 0.0
2016-Jun-10 03:34N 47°39' W 122°23'0 0.0
2016-Jun-10 02:34N 47°39' W 122°23'0 0.0
2016-Jun-10 01:33N 47°39' W 122°23'0 0.0
2016-Jun-10 00:33N 47°39' W 122°23'0 0.0
2016-Jun-09 23:33N 47°39' W 122°23'0 0.0
2016-Jun-09 22:34N 47°39' W 122°23'0 0.0
2016-Jun-09 21:33N 47°39' W 122°23'0 0.0
2016-Jun-09 20:34N 47°39' W 122°23'0 0.0
2016-Jun-09 19:34N 47°39' W 122°23'0 0.0
2016-Jun-09 18:34N 47°39' W 122°23'0 0.0
2016-Jun-09 17:34N 47°39' W 122°23'0 0.0
2016-Jun-09 16:34N 47°39' W 122°23'0 0.0
2016-Jun-09 15:34N 47°39' W 122°23'0 0.0
2016-Jun-09 14:34N 47°39' W 122°23'0 0.0
2016-Jun-09 13:33N 47°39' W 122°23'0 0.0
2016-Jun-09 12:33N 47°39' W 122°23'0 0.0
2016-Jun-09 11:34N 47°39' W 122°23'0 0.0
2016-Jun-09 10:34N 47°39' W 122°23'0 0.0
2016-Jun-09 09:34N 47°39' W 122°23'0 0.0
2016-Jun-09 08:33N 47°39' W 122°23'0 0.0
2016-Jun-09 07:33N 47°39' W 122°23'0 0.0
2016-Jun-09 06:34N 47°39' W 122°23'0 0.0
2016-Jun-09 05:33N 47°39' W 122°23'0 0.0
2016-Jun-09 04:33N 47°39' W 122°23'0 0.0
2016-Jun-09 03:33N 47°39' W 122°23'0 0.0
2016-Jun-09 02:33N 47°39' W 122°23'0 0.0
2016-Jun-09 01:33N 47°39' W 122°23'0 0.0
2016-Jun-09 00:34N 47°39' W 122°23'0 0.0
2016-Jun-08 23:34N 47°39' W 122°23'0 0.0
2016-Jun-08 22:33N 47°39' W 122°23'0 0.0
2016-Jun-08 21:34N 47°39' W 122°23'0 0.0
2016-Jun-08 20:33N 47°39' W 122°23'0 0.0
2016-Jun-08 19:34N 47°39' W 122°23'0 0.0
2016-Jun-08 18:34N 47°39' W 122°23'0 0.0
2016-Jun-08 17:33N 47°39' W 122°23'0 0.0
2016-Jun-08 16:34N 47°39' W 122°23'0 0.0
2016-Jun-08 15:34N 47°39' W 122°23'0 0.0
2016-Jun-08 14:34N 47°39' W 122°23'0 0.0
2016-Jun-08 13:33N 47°39' W 122°23'0 0.0
2016-Jun-08 12:33N 47°39' W 122°23'0 0.0
2016-Jun-08 11:33N 47°39' W 122°23'0 0.0
2016-Jun-08 10:33N 47°39' W 122°23'0 0.0
2016-Jun-08 09:34N 47°39' W 122°23'0 0.0
2016-Jun-08 08:33N 47°39' W 122°23'0 0.0
2016-Jun-08 07:33N 47°39' W 122°23'0 0.0
2016-Jun-08 06:33N 47°39' W 122°23'0 0.0
2016-Jun-08 05:33N 47°39' W 122°23'0 0.0
2016-Jun-08 04:34N 47°39' W 122°23'0 0.0
2016-Jun-08 03:33N 47°39' W 122°23'0 0.0
2016-Jun-08 02:34N 47°39' W 122°23'0 0.0
2016-Jun-08 01:33N 47°39' W 122°23'0 0.0
2016-Jun-08 00:33N 47°39' W 122°23'0 0.0
2016-Jun-07 23:33N 47°39' W 122°23'0 0.0
2016-Jun-07 22:33N 47°39' W 122°23'0 0.0
2016-Jun-07 21:34N 47°39' W 122°23'0 0.0
2016-Jun-07 20:33N 47°39' W 122°23'0 0.0
2016-Jun-07 19:34N 47°39' W 122°23'0 0.0
2016-Jun-07 18:33N 47°39' W 122°23'0 0.0
2016-Jun-07 17:34N 47°39' W 122°23'0 0.0
2016-Jun-07 16:33N 47°39' W 122°23'0 0.0
2016-Jun-07 15:33N 47°39' W 122°23'0 0.0
2016-Jun-07 14:33N 47°39' W 122°23'  

Dump ship's entire track history